createdAt,value
2018-04-08T00:00:22.554Z,10.32
2018-04-08T00:01:25.842Z,10.40
2018-04-08T00:02:30.615Z,11.27
2018-04-08T00:03:33.852Z,10.60
2018-04-08T00:04:37.840Z,11.68
2018-04-08T00:05:41.201Z,11.68
2018-04-08T00:06:44.405Z,11.07
2018-04-08T00:07:47.644Z,10.10
2018-04-08T00:08:50.867Z,11.35
2018-04-08T00:09:54.088Z,10.57
2018-04-08T00:10:57.296Z,12.00
2018-04-08T00:12:00.512Z,11.60
2018-04-08T00:13:05.261Z,10.18
2018-04-08T00:14:08.466Z,10.93
2018-04-08T00:15:11.680Z,10.45
2018-04-08T00:16:15.044Z,11.82
2018-04-08T00:17:18.275Z,10.95
2018-04-08T00:18:21.587Z,11.80
2018-04-08T00:19:25.578Z,10.38
2018-04-08T00:20:29.549Z,11.43
2018-04-08T00:21:32.789Z,10.30
2018-04-08T00:22:36.772Z,10.40
2018-04-08T00:23:39.996Z,10.73
2018-04-08T00:24:43.234Z,11.20
2018-04-08T00:25:47.213Z,10.95
2018-04-08T00:26:50.474Z,10.90
2018-04-08T00:27:53.699Z,10.70
2018-04-08T00:28:57.674Z,9.98
2018-04-08T00:30:01.003Z,9.82
2018-04-08T00:31:04.981Z,10.65
2018-04-08T00:32:08.964Z,10.23
2018-04-08T00:33:12.164Z,10.00
2018-04-08T00:34:16.146Z,9.57
2018-04-08T00:35:20.134Z,12.02
2018-04-08T00:36:23.340Z,10.38
2018-04-08T00:37:27.372Z,9.80
2018-04-08T00:38:30.577Z,11.05
2018-04-08T00:39:33.800Z,10.15
2018-04-08T00:40:37.040Z,10.85
2018-04-08T00:41:40.245Z,10.65
2018-04-08T00:42:43.451Z,10.60
2018-04-08T00:43:47.452Z,10.02
2018-04-08T00:44:51.526Z,11.18
2018-04-08T00:45:54.755Z,9.68
2018-04-08T00:46:59.446Z,10.88
2018-04-08T00:48:02.660Z,11.00
2018-04-08T00:49:05.901Z,10.30
2018-04-08T00:50:09.112Z,11.05
2018-04-08T00:51:13.121Z,10.65
2018-04-08T00:52:17.096Z,10.90
2018-04-08T00:53:20.336Z,9.73
2018-04-08T00:54:37.265Z,10.38
2018-04-08T00:55:40.480Z,10.02
2018-04-08T00:56:44.471Z,9.85
2018-04-08T00:57:47.752Z,10.02
2018-04-08T00:58:50.937Z,10.88
2018-04-08T00:59:54.921Z,10.10
2018-04-08T01:00:58.948Z,11.50
2018-04-08T01:02:02.951Z,9.70
2018-04-08T01:03:06.915Z,11.20
2018-04-08T01:04:10.143Z,11.25
2018-04-08T01:05:14.123Z,9.70
2018-04-08T01:06:17.344Z,10.10
2018-04-08T01:07:20.561Z,10.63
2018-04-08T01:08:23.791Z,10.75
2018-04-08T01:09:27.028Z,11.27
2018-04-08T01:10:30.236Z,11.30
2018-04-08T01:11:34.257Z,10.85
2018-04-08T01:12:38.255Z,11.40
2018-04-08T01:13:42.224Z,12.25
2018-04-08T01:14:46.962Z,10.50
2018-04-08T01:15:50.940Z,10.40
2018-04-08T01:16:54.160Z,11.45
2018-04-08T01:17:57.402Z,10.27
2018-04-08T01:19:00.603Z,10.98
2018-04-08T01:20:03.830Z,11.98
2018-04-08T01:21:07.105Z,10.30
2018-04-08T01:22:10.332Z,11.30
2018-04-08T01:23:13.562Z,12.00
2018-04-08T01:24:16.855Z,11.15
2018-04-08T01:25:20.057Z,10.70
2018-04-08T01:26:23.282Z,11.75
2018-04-08T01:27:27.284Z,11.38
2018-04-08T01:28:30.493Z,12.82
2018-04-08T01:29:33.723Z,10.95
2018-04-08T01:30:36.951Z,10.85
2018-04-08T01:31:40.172Z,10.93
2018-04-08T01:32:43.425Z,10.30
2018-04-08T01:33:46.658Z,11.95
2018-04-08T01:34:49.859Z,11.52
2018-04-08T01:35:53.839Z,12.20
2018-04-08T01:36:57.085Z,10.05
2018-04-08T01:38:00.303Z,12.07
2018-04-08T01:39:03.507Z,11.40
2018-04-08T01:40:07.563Z,10.45
2018-04-08T01:41:10.773Z,12.10
2018-04-08T01:42:14.014Z,12.23
2018-04-08T01:43:17.245Z,11.45
2018-04-08T01:44:21.232Z,12.48
2018-04-08T01:45:24.445Z,12.32
2018-04-08T01:46:27.652Z,11.55
2018-04-08T01:47:30.874Z,11.95
2018-04-08T01:48:34.105Z,11.18
2018-04-08T01:49:38.097Z,11.65
2018-04-08T01:50:42.079Z,11.40
2018-04-08T01:51:46.090Z,12.07
2018-04-08T01:52:50.099Z,11.80
2018-04-08T01:53:53.320Z,11.90
2018-04-08T01:54:56.530Z,11.35
2018-04-08T01:55:59.756Z,11.90
2018-04-08T01:57:05.007Z,13.13
2018-04-08T01:58:08.428Z,12.32
2018-04-08T01:59:11.644Z,11.80
2018-04-08T02:00:15.680Z,13.10
2018-04-08T02:01:19.718Z,12.98
2018-04-08T02:02:23.231Z,12.10
2018-04-08T02:03:26.430Z,11.43
2018-04-08T02:04:29.644Z,12.37
2018-04-08T02:05:32.889Z,12.73
2018-04-08T02:06:36.088Z,13.13
2018-04-08T02:07:39.348Z,13.57
2018-04-08T02:08:43.334Z,11.10
2018-04-08T02:09:46.547Z,12.30
2018-04-08T02:10:49.765Z,12.85
2018-04-08T02:11:52.976Z,11.98
2018-04-08T02:12:56.202Z,12.07
2018-04-08T02:13:59.417Z,13.20
2018-04-08T02:15:02.715Z,14.10
2018-04-08T02:16:05.904Z,12.65
2018-04-08T02:17:09.211Z,12.73
2018-04-08T02:18:13.192Z,12.98
2018-04-08T02:19:16.467Z,14.35
2018-04-08T02:20:19.650Z,14.05
2018-04-08T02:21:22.879Z,13.77
2018-04-08T02:22:26.884Z,13.52
2018-04-08T02:23:30.090Z,12.98
2018-04-08T02:24:33.300Z,13.05
2018-04-08T02:25:36.527Z,11.60
2018-04-08T02:26:39.838Z,13.05
2018-04-08T02:27:43.042Z,13.52
2018-04-08T02:28:46.283Z,11.80
2018-04-08T02:29:49.497Z,13.85
2018-04-08T02:30:52.770Z,13.30
2018-04-08T02:31:55.985Z,12.37
2018-04-08T02:32:59.199Z,12.95
2018-04-08T02:34:03.195Z,13.88
2018-04-08T02:35:07.206Z,12.88
2018-04-08T02:36:11.176Z,12.88
2018-04-08T02:37:14.400Z,14.60
2018-04-08T02:38:17.612Z,13.05
2018-04-08T02:39:20.839Z,12.90
2018-04-08T02:40:24.824Z,13.55
2018-04-08T02:41:28.048Z,12.52
2018-04-08T02:42:31.279Z,12.27
2018-04-08T02:43:34.486Z,11.82
2018-04-08T02:44:38.479Z,11.43
2018-04-08T02:45:41.690Z,12.25
2018-04-08T02:46:44.916Z,12.70
2018-04-08T02:47:48.153Z,11.90
2018-04-08T02:48:51.384Z,12.30
2018-04-08T02:49:54.601Z,14.10
2018-04-08T02:50:58.581Z,13.15
2018-04-08T02:52:01.811Z,13.13
2018-04-08T02:53:05.033Z,12.73
2018-04-08T02:54:08.269Z,12.68
2018-04-08T02:55:11.486Z,12.55
2018-04-08T02:56:14.707Z,12.55
2018-04-08T02:57:18.694Z,12.40
2018-04-08T02:58:22.013Z,12.50
2018-04-08T02:59:25.281Z,13.10
2018-04-08T03:00:29.279Z,13.68
2018-04-08T03:01:33.280Z,12.30
2018-04-08T03:02:37.321Z,12.05
2018-04-08T03:03:40.528Z,12.48
2018-04-08T03:04:43.765Z,12.73
2018-04-08T03:05:47.781Z,13.00
2018-04-08T03:06:50.991Z,12.82
2018-04-08T03:07:54.228Z,12.75
2018-04-08T03:08:57.467Z,13.75
2018-04-08T03:10:00.684Z,11.50
2018-04-08T03:11:04.690Z,11.65
2018-04-08T03:12:08.677Z,12.20
2018-04-08T03:13:12.668Z,13.05
2018-04-08T03:14:15.908Z,12.93
2018-04-08T03:15:19.120Z,12.50
2018-04-08T03:16:22.381Z,12.88
2018-04-08T03:17:26.473Z,12.85
2018-04-08T03:18:30.607Z,12.93
2018-04-08T03:19:33.826Z,13.60
2018-04-08T03:20:37.816Z,13.65
2018-04-08T03:21:41.818Z,12.43
2018-04-08T03:22:45.035Z,13.02
2018-04-08T03:23:48.314Z,13.90
2018-04-08T03:24:51.557Z,13.10
2018-04-08T03:25:54.747Z,12.82
2018-04-08T03:26:58.729Z,12.48
2018-04-08T03:28:01.972Z,13.20
2018-04-08T03:29:05.235Z,12.80
2018-04-08T03:30:09.227Z,13.82
2018-04-08T03:31:13.230Z,14.35
2018-04-08T03:32:17.198Z,11.45
2018-04-08T03:33:20.423Z,13.25
2018-04-08T03:34:23.651Z,13.65
2018-04-08T03:35:26.867Z,12.88
2018-04-08T03:36:30.855Z,13.90
2018-04-08T03:37:34.074Z,13.35
2018-04-08T03:38:37.335Z,13.88
2018-04-08T03:39:40.540Z,12.88
2018-04-08T03:40:43.802Z,13.30
2018-04-08T03:41:47.787Z,12.82
2018-04-08T03:42:51.794Z,12.85
2018-04-08T03:43:54.995Z,12.30
2018-04-08T03:44:58.964Z,13.75
2018-04-08T03:46:02.286Z,13.02
2018-04-08T03:47:05.629Z,13.75
2018-04-08T03:48:08.869Z,12.60
2018-04-08T03:49:12.089Z,11.45
2018-04-08T03:50:15.298Z,14.23
2018-04-08T03:51:19.287Z,13.32
2018-04-08T03:52:22.557Z,12.65
2018-04-08T03:53:25.794Z,11.52
2018-04-08T03:54:29.026Z,14.70
2018-04-08T03:55:32.261Z,13.02
2018-04-08T03:56:35.488Z,12.57
2018-04-08T03:57:39.518Z,12.98
2018-04-08T03:58:43.535Z,13.75
2018-04-08T03:59:47.521Z,11.88
2018-04-08T04:00:51.504Z,12.88
2018-04-08T04:01:54.742Z,13.13
2018-04-08T04:02:58.031Z,13.40
2018-04-08T04:04:01.249Z,13.52
2018-04-08T04:05:04.463Z,13.30
2018-04-08T04:06:08.442Z,12.80
2018-04-08T04:07:11.665Z,13.13
2018-04-08T04:08:14.880Z,13.43
2018-04-08T04:09:18.103Z,12.80
2018-04-08T04:10:22.172Z,13.45
2018-04-08T04:11:25.378Z,13.95
2018-04-08T04:12:28.589Z,13.35
2018-04-08T04:13:31.824Z,12.55
2018-04-08T04:14:36.576Z,13.65
2018-04-08T04:15:39.775Z,13.57
2018-04-08T04:16:42.992Z,12.40
2018-04-08T04:17:46.204Z,14.00
2018-04-08T04:19:01.418Z,12.90
2018-04-08T04:20:16.492Z,13.40
2018-04-08T04:21:31.564Z,13.02
2018-04-08T04:22:46.602Z,13.40
2018-04-08T04:24:01.591Z,13.35
2018-04-08T04:25:19.561Z,12.55
2018-04-08T04:26:31.350Z,13.90
2018-04-08T04:27:34.574Z,13.45
2018-04-08T04:28:37.807Z,14.30
2018-04-08T04:29:41.799Z,13.18
2018-04-08T04:30:45.806Z,13.73
2018-04-08T04:31:49.006Z,13.52
2018-04-08T04:32:52.226Z,13.23
2018-04-08T04:33:55.447Z,13.05
2018-04-08T04:34:59.431Z,13.50
2018-04-08T04:36:02.681Z,13.93
2018-04-08T04:37:05.917Z,13.52
2018-04-08T04:38:09.908Z,15.75
2018-04-08T04:39:13.877Z,12.95
2018-04-08T04:40:17.101Z,12.77
2018-04-08T04:41:21.096Z,11.82
2018-04-08T04:42:25.113Z,12.20
2018-04-08T04:43:28.333Z,12.90
2018-04-08T04:44:31.563Z,12.30
2018-04-08T04:45:34.824Z,13.50
2018-04-08T04:46:37.969Z,12.40
2018-04-08T04:47:41.195Z,13.35
2018-04-08T04:48:44.404Z,14.50
2018-04-08T04:49:47.625Z,12.82
2018-04-08T04:50:50.844Z,12.30
2018-04-08T04:51:54.055Z,13.18
2018-04-08T04:52:57.283Z,12.25
2018-04-08T04:54:00.503Z,12.30
2018-04-08T04:55:04.531Z,12.88
2018-04-08T04:56:07.735Z,12.63
2018-04-08T04:57:10.965Z,12.68
2018-04-08T04:58:14.942Z,13.40
2018-04-08T04:59:18.153Z,13.65
2018-04-08T05:00:22.127Z,13.62
2018-04-08T05:01:25.367Z,13.32
2018-04-08T05:02:28.564Z,13.82
2018-04-08T05:03:31.787Z,13.70
2018-04-08T05:04:35.107Z,14.00
2018-04-08T05:05:39.082Z,13.88
2018-04-08T05:06:43.094Z,13.20
2018-04-08T05:07:47.076Z,14.40
2018-04-08T05:08:51.075Z,13.70
2018-04-08T05:09:55.085Z,13.93
2018-04-08T05:10:59.089Z,14.00
2018-04-08T05:12:02.456Z,13.30
2018-04-08T05:13:05.662Z,14.38
2018-04-08T05:14:09.745Z,13.80
2018-04-08T05:15:12.935Z,13.15
2018-04-08T05:16:16.962Z,13.07
2018-04-08T05:17:20.234Z,13.40
2018-04-08T05:18:24.255Z,13.43
2018-04-08T05:19:27.485Z,13.18
2018-04-08T05:20:30.767Z,12.13
2018-04-08T05:21:33.948Z,13.65
2018-04-08T05:22:37.175Z,12.75
2018-04-08T05:23:41.148Z,14.32
2018-04-08T05:24:45.129Z,12.80
2018-04-08T05:25:48.364Z,13.77
2018-04-08T05:26:51.635Z,13.93
2018-04-08T05:27:54.959Z,13.43
2018-04-08T05:28:58.160Z,12.70
2018-04-08T05:30:01.372Z,13.05
2018-04-08T05:31:05.360Z,14.43
2018-04-08T05:32:08.585Z,13.25
2018-04-08T05:33:11.800Z,13.45
2018-04-08T05:34:15.032Z,13.65
2018-04-08T05:35:19.038Z,14.05
2018-04-08T05:36:23.011Z,13.95
2018-04-08T05:37:26.235Z,13.40
2018-04-08T05:38:29.455Z,13.55
2018-04-08T05:39:32.674Z,13.57
2018-04-08T05:40:35.890Z,12.95
2018-04-08T05:41:39.141Z,14.45
2018-04-08T05:42:43.149Z,12.85
2018-04-08T05:43:47.124Z,12.80
2018-04-08T05:44:50.338Z,15.10
2018-04-08T05:45:53.549Z,13.05
2018-04-08T05:46:56.775Z,13.62
2018-04-08T05:47:59.992Z,12.98
2018-04-08T05:49:03.208Z,13.27
2018-04-08T05:50:06.445Z,13.55
2018-04-08T05:51:09.709Z,14.75
2018-04-08T05:52:13.733Z,12.73
2018-04-08T05:53:16.952Z,12.68
2018-04-08T05:54:20.225Z,13.65
2018-04-08T05:55:23.457Z,13.13
2018-04-08T05:56:27.470Z,12.90
2018-04-08T05:57:31.427Z,14.00
2018-04-08T05:58:34.647Z,12.95
2018-04-08T05:59:38.758Z,12.57
2018-04-08T06:00:41.976Z,13.30
2018-04-08T06:01:45.195Z,12.68
2018-04-08T06:02:48.419Z,12.68
2018-04-08T06:03:51.661Z,13.13
2018-04-08T06:04:54.877Z,14.50
2018-04-08T06:05:58.846Z,14.32
2018-04-08T06:07:02.071Z,15.30
2018-04-08T06:08:05.399Z,13.25
2018-04-08T06:09:08.604Z,13.27
2018-04-08T06:10:11.863Z,14.70
2018-04-08T06:11:15.093Z,14.93
2018-04-08T06:12:18.326Z,14.90
2018-04-08T06:13:21.547Z,15.77
2018-04-08T06:14:24.779Z,15.88
2018-04-08T06:15:27.985Z,15.52
2018-04-08T06:16:31.970Z,14.10
2018-04-08T06:17:35.263Z,13.10
2018-04-08T06:18:38.430Z,13.82
2018-04-08T06:19:41.660Z,14.68
2018-04-08T06:20:44.880Z,13.70
2018-04-08T06:21:48.105Z,14.30
2018-04-08T06:22:51.326Z,13.82
2018-04-08T06:23:54.544Z,13.98
2018-04-08T06:24:57.762Z,13.73
2018-04-08T06:26:01.755Z,13.48
2018-04-08T06:27:04.974Z,14.38
2018-04-08T06:28:08.216Z,14.25
2018-04-08T06:29:12.200Z,13.93
2018-04-08T06:30:15.447Z,14.13
2018-04-08T06:31:18.640Z,17.95
2018-04-08T06:32:21.846Z,16.48
2018-04-08T06:33:25.083Z,16.48
2018-04-08T06:34:28.301Z,15.77
2018-04-08T06:35:31.508Z,15.35
2018-04-08T06:36:34.736Z,13.85
2018-04-08T06:37:37.970Z,14.73
2018-04-08T06:38:41.202Z,13.48
2018-04-08T06:39:44.432Z,15.68
2018-04-08T06:40:47.653Z,15.10
2018-04-08T06:41:50.873Z,14.75
2018-04-08T06:42:54.084Z,14.70
2018-04-08T06:43:57.314Z,14.45
2018-04-08T06:45:00.585Z,15.15
2018-04-08T06:46:04.638Z,15.25
2018-04-08T06:47:07.845Z,14.25
2018-04-08T06:48:11.082Z,16.55
2018-04-08T06:49:14.298Z,14.32
2018-04-08T06:50:17.506Z,14.13
2018-04-08T06:51:21.488Z,15.50
2018-04-08T06:52:24.707Z,16.58
2018-04-08T06:53:27.943Z,16.65
2018-04-08T06:54:31.196Z,15.38
2018-04-08T06:55:34.407Z,16.23
2018-04-08T06:56:37.639Z,15.60
2018-04-08T06:57:40.910Z,14.43
2018-04-08T06:58:44.914Z,15.50
2018-04-08T06:59:48.143Z,15.45
2018-04-08T07:00:51.390Z,13.77
2018-04-08T07:01:54.622Z,15.85
2018-04-08T07:02:57.873Z,16.62
2018-04-08T07:04:01.098Z,15.70
2018-04-08T07:05:04.316Z,16.00
2018-04-08T07:06:07.524Z,14.85
2018-04-08T07:07:10.782Z,15.43
2018-04-08T07:08:14.761Z,14.52
2018-04-08T07:09:18.837Z,16.90
2018-04-08T07:10:22.044Z,15.23
2018-04-08T07:11:25.267Z,15.90
2018-04-08T07:12:28.486Z,15.45
2018-04-08T07:13:31.728Z,15.23
2018-04-08T07:14:34.928Z,14.48
2018-04-08T07:15:38.144Z,15.02
2018-04-08T07:16:41.388Z,14.32
2018-04-08T07:17:44.598Z,15.70
2018-04-08T07:18:47.833Z,16.60
2018-04-08T07:19:51.075Z,15.45
2018-04-08T07:20:54.299Z,14.50
2018-04-08T07:21:57.538Z,14.20
2018-04-08T07:23:00.752Z,13.82
2018-04-08T07:24:04.002Z,14.30
2018-04-08T07:25:07.248Z,13.18
2018-04-08T07:26:10.480Z,12.88
2018-04-08T07:27:14.510Z,13.45
2018-04-08T07:28:17.741Z,13.52
2018-04-08T07:29:21.040Z,15.18
2018-04-08T07:30:24.268Z,14.05
2018-04-08T07:31:27.500Z,14.77
2018-04-08T07:32:30.770Z,14.30
2018-04-08T07:33:34.006Z,14.40
2018-04-08T07:34:37.240Z,14.32
2018-04-08T07:35:40.515Z,13.40
2018-04-08T07:36:43.757Z,14.15
2018-04-08T07:37:46.980Z,12.65
2018-04-08T07:38:50.228Z,14.05
2018-04-08T07:39:53.442Z,13.80
2018-04-08T07:40:56.672Z,13.68
2018-04-08T07:42:00.663Z,14.10
2018-04-08T07:43:04.677Z,13.60
2018-04-08T07:44:08.741Z,13.40
2018-04-08T07:45:12.719Z,14.02
2018-04-08T07:46:15.952Z,14.57
2018-04-08T07:47:19.930Z,14.60
2018-04-08T07:48:23.170Z,15.45
2018-04-08T07:49:26.391Z,14.40
2018-04-08T07:50:29.623Z,15.13
2018-04-08T07:51:32.856Z,14.55
2018-04-08T07:52:36.071Z,14.05
2018-04-08T07:53:40.069Z,13.40
2018-04-08T07:54:44.060Z,13.75
2018-04-08T07:55:48.149Z,13.23
2018-04-08T07:56:51.403Z,12.13
2018-04-08T07:57:54.632Z,13.57
2018-04-08T07:58:58.634Z,12.93
2018-04-08T08:00:02.627Z,13.15
2018-04-08T08:01:05.848Z,13.55
2018-04-08T08:02:09.120Z,13.80
2018-04-08T08:03:12.377Z,13.13
2018-04-08T08:04:15.601Z,13.68
2018-04-08T08:05:18.926Z,14.27
2018-04-08T08:06:22.116Z,13.20
2018-04-08T08:07:25.340Z,13.57
2018-04-08T08:08:28.593Z,15.23
2018-04-08T08:09:32.588Z,13.15
2018-04-08T08:10:35.800Z,14.50
2018-04-08T08:11:39.049Z,13.60
2018-04-08T08:12:43.780Z,13.25
2018-04-08T08:13:47.828Z,12.15
2018-04-08T08:14:51.060Z,13.32
2018-04-08T08:15:54.295Z,13.80
2018-04-08T08:16:57.512Z,13.15
2018-04-08T08:18:00.764Z,12.35
2018-04-08T08:19:03.977Z,12.98
2018-04-08T08:20:07.309Z,12.48
2018-04-08T08:21:11.315Z,13.80
2018-04-08T08:22:15.280Z,13.23
2018-04-08T08:23:19.309Z,12.85
2018-04-08T08:24:23.277Z,13.90
2018-04-08T08:25:27.322Z,13.65
2018-04-08T08:26:30.549Z,13.55
2018-04-08T08:27:33.886Z,14.52
2018-04-08T08:28:37.205Z,14.48
2018-04-08T08:29:40.400Z,13.25
2018-04-08T08:30:44.402Z,13.95
2018-04-08T08:31:47.658Z,14.98
2018-04-08T08:32:50.881Z,13.80
2018-04-08T08:33:54.111Z,14.07
2018-04-08T08:34:57.348Z,16.05
2018-04-08T08:36:00.592Z,14.40
2018-04-08T08:37:03.828Z,14.13
2018-04-08T08:38:07.847Z,15.25
2018-04-08T08:39:11.825Z,14.55
2018-04-08T08:40:15.834Z,13.88
2018-04-08T08:41:19.815Z,14.23
2018-04-08T08:42:23.039Z,14.07
2018-04-08T08:43:26.268Z,15.55
2018-04-08T08:44:29.605Z,15.18
2018-04-08T08:45:32.837Z,13.75
2018-04-08T08:46:36.808Z,14.52
2018-04-08T08:47:40.034Z,14.13
2018-04-08T08:48:44.037Z,14.20
2018-04-08T08:49:47.440Z,15.00
2018-04-08T08:50:51.436Z,16.25
2018-04-08T08:51:55.434Z,16.25
2018-04-08T08:52:59.602Z,14.75
2018-04-08T08:54:02.803Z,15.60
2018-04-08T08:55:06.020Z,13.65
2018-04-08T08:56:09.296Z,15.65
2018-04-08T08:57:12.489Z,15.68
2018-04-08T08:58:15.768Z,16.37
2018-04-08T08:59:19.732Z,14.45
2018-04-08T09:00:22.973Z,14.73
2018-04-08T09:01:26.195Z,14.87
2018-04-08T09:02:29.398Z,16.62
2018-04-08T09:03:33.390Z,15.60
2018-04-08T09:04:37.382Z,16.05
2018-04-08T09:05:40.725Z,16.37
2018-04-08T09:06:43.965Z,17.25
2018-04-08T09:07:47.172Z,15.88
2018-04-08T09:08:50.393Z,15.50
2018-04-08T09:09:53.622Z,16.45
2018-04-08T09:10:57.625Z,16.27
2018-04-08T09:12:01.604Z,16.90
2018-04-08T09:13:05.583Z,16.75
2018-04-08T09:14:10.336Z,16.85
2018-04-08T09:15:14.337Z,15.10
2018-04-08T09:16:18.315Z,16.17
2018-04-08T09:17:21.644Z,16.80
2018-04-08T09:18:24.885Z,16.37
2018-04-08T09:19:34.686Z,17.62
2018-04-08T09:20:37.907Z,17.17
2018-04-08T09:21:47.696Z,17.45
2018-04-08T09:22:54.909Z,16.73
2018-04-08T09:24:00.612Z,17.92
2018-04-08T09:25:05.312Z,17.23
2018-04-08T09:26:08.996Z,16.48
2018-04-08T09:27:12.228Z,17.10
2018-04-08T09:28:15.455Z,16.90
2018-04-08T09:29:19.479Z,17.33
2018-04-08T09:30:22.719Z,16.67
2018-04-08T09:31:25.938Z,18.67
2018-04-08T09:32:29.162Z,17.42
2018-04-08T09:33:32.397Z,17.92
2018-04-08T09:34:35.622Z,18.15
2018-04-08T09:35:38.840Z,16.37
2018-04-08T09:36:42.847Z,16.45
2018-04-08T09:37:46.820Z,17.62
2018-04-08T09:38:50.036Z,16.70
2018-04-08T09:39:54.052Z,16.55
2018-04-08T09:40:57.279Z,16.77
2018-04-08T09:42:00.484Z,17.25
2018-04-08T09:43:04.486Z,17.98
2018-04-08T09:44:07.717Z,18.52
2018-04-08T09:45:10.927Z,17.23
2018-04-08T09:46:14.177Z,17.27
2018-04-08T09:47:17.404Z,16.35
2018-04-08T09:48:20.628Z,16.65
2018-04-08T09:49:23.857Z,16.67
2018-04-08T09:50:27.082Z,17.12
2018-04-08T09:51:31.066Z,16.75
2018-04-08T09:52:34.359Z,18.25
2018-04-08T09:53:38.360Z,17.12
2018-04-08T09:54:42.346Z,16.33
2018-04-08T09:55:45.580Z,15.55
2018-04-08T09:56:48.800Z,17.20
2018-04-08T09:57:57.813Z,16.05
2018-04-08T09:59:01.045Z,16.30
2018-04-08T10:00:04.252Z,16.20
2018-04-08T10:01:26.280Z,16.67
2018-04-08T10:02:33.182Z,17.08
2018-04-08T10:03:46.093Z,15.75
2018-04-08T10:04:49.411Z,16.12
2018-04-08T10:05:52.646Z,16.50
2018-04-08T10:06:55.860Z,16.80
2018-04-08T10:07:59.860Z,15.98
2018-04-08T10:09:03.846Z,15.32
2018-04-08T10:10:07.089Z,16.12
2018-04-08T10:11:10.303Z,16.05
2018-04-08T10:12:13.544Z,15.82
2018-04-08T10:13:16.813Z,16.25
2018-04-08T10:14:20.067Z,16.17
2018-04-08T10:15:23.386Z,15.45
2018-04-08T10:16:26.620Z,16.15
2018-04-08T10:17:29.849Z,15.18
2018-04-08T10:18:33.094Z,14.32
2018-04-08T10:19:36.291Z,15.23
2018-04-08T10:20:39.550Z,15.25
2018-04-08T10:21:42.777Z,15.25
2018-04-08T10:22:46.034Z,15.70
2018-04-08T10:23:49.238Z,16.12
2018-04-08T10:24:53.253Z,15.30
2018-04-08T10:25:57.205Z,16.33
2018-04-08T10:27:00.530Z,15.70
2018-04-08T10:28:03.781Z,15.13
2018-04-08T10:29:07.043Z,15.00
2018-04-08T10:30:10.248Z,16.23
2018-04-08T10:31:13.466Z,14.95
2018-04-08T10:32:16.698Z,15.50
2018-04-08T10:33:21.428Z,15.30
2018-04-08T10:34:25.418Z,15.20
2018-04-08T10:35:28.650Z,15.32
2018-04-08T10:36:31.883Z,15.10
2018-04-08T10:37:35.098Z,16.08
2018-04-08T10:38:39.095Z,14.25
2018-04-08T10:39:43.094Z,15.68
2018-04-08T10:40:46.326Z,14.80
2018-04-08T10:41:49.559Z,15.00
2018-04-08T10:42:53.540Z,15.60
2018-04-08T10:43:56.782Z,15.75
2018-04-08T10:44:59.987Z,14.75
2018-04-08T10:46:03.239Z,15.35
2018-04-08T10:47:06.496Z,14.20
2018-04-08T10:48:09.712Z,13.70
2018-04-08T10:49:12.957Z,13.62
2018-04-08T10:50:16.930Z,15.05
2018-04-08T10:51:20.162Z,14.70
2018-04-08T10:52:23.394Z,15.68
2018-04-08T10:53:26.611Z,15.32
2018-04-08T10:54:29.921Z,14.27
2018-04-08T10:55:33.194Z,15.05
2018-04-08T10:56:36.811Z,15.50
2018-04-08T10:57:40.051Z,16.05
2018-04-08T10:58:44.022Z,15.05
2018-04-08T10:59:47.377Z,15.43
2018-04-08T11:00:50.650Z,16.40
2018-04-08T11:01:53.877Z,17.15
2018-04-08T11:02:57.137Z,16.33
2018-04-08T11:04:00.500Z,16.70
2018-04-08T11:05:03.713Z,15.43
2018-04-08T11:06:06.962Z,16.73
2018-04-08T11:07:10.193Z,16.00
2018-04-08T11:08:15.356Z,15.57
2018-04-08T11:09:21.892Z,16.92
2018-04-08T11:10:25.153Z,17.58
2018-04-08T11:11:28.438Z,17.55
2018-04-08T11:12:31.628Z,16.95
2018-04-08T11:13:34.865Z,16.33
2018-04-08T11:14:38.101Z,15.95
2018-04-08T11:15:41.323Z,15.80
2018-04-08T11:16:44.554Z,17.95
2018-04-08T11:17:47.844Z,15.70
2018-04-08T11:18:51.069Z,16.33
2018-04-08T11:19:54.290Z,16.05
2018-04-08T11:20:57.517Z,17.17
2018-04-08T11:22:01.517Z,17.80
2018-04-08T11:23:05.512Z,16.20
2018-04-08T11:24:09.553Z,16.05
2018-04-08T11:25:12.793Z,16.45
2018-04-08T11:26:16.771Z,17.50
2018-04-08T11:27:19.999Z,16.65
2018-04-08T11:28:23.218Z,16.90
2018-04-08T11:29:26.455Z,17.70
2018-04-08T11:30:30.429Z,17.80
2018-04-08T11:31:33.707Z,18.27
2018-04-08T11:32:37.448Z,18.17
2018-04-08T11:33:40.670Z,17.12
2018-04-08T11:34:43.902Z,17.25
2018-04-08T11:35:47.150Z,18.20
2018-04-08T11:36:50.372Z,16.20
2018-04-08T11:37:53.609Z,17.73
2018-04-08T11:38:56.808Z,19.00
2018-04-08T11:40:00.035Z,18.15
2018-04-08T11:41:03.255Z,19.08
2018-04-08T11:42:06.484Z,18.10
2018-04-08T11:43:09.729Z,17.60
2018-04-08T11:44:12.958Z,17.08
2018-04-08T11:45:16.189Z,18.48
2018-04-08T11:46:19.427Z,19.17
2018-04-08T11:47:22.640Z,18.30
2018-04-08T11:48:25.866Z,20.05
2018-04-08T11:49:29.867Z,17.55
2018-04-08T11:50:33.877Z,18.02
2018-04-08T11:51:37.852Z,18.37
2018-04-08T11:52:41.080Z,19.37
2018-04-08T11:53:44.353Z,20.52
2018-04-08T11:54:47.587Z,17.95
2018-04-08T11:55:50.868Z,17.50
2018-04-08T11:56:54.072Z,19.80
2018-04-08T11:57:57.288Z,20.25
2018-04-08T11:59:00.518Z,20.33
2018-04-08T12:00:03.781Z,20.70
2018-04-08T12:01:07.013Z,20.70
2018-04-08T12:02:11.071Z,20.05
2018-04-08T12:03:14.298Z,19.60
2018-04-08T12:04:18.604Z,19.08
2018-04-08T12:05:22.623Z,18.17
2018-04-08T12:06:25.876Z,19.05
2018-04-08T12:07:29.093Z,18.92
2018-04-08T12:08:32.336Z,19.50
2018-04-08T12:09:35.645Z,17.92
2018-04-08T12:10:38.945Z,18.75
2018-04-08T12:11:42.138Z,18.65
2018-04-08T12:12:45.378Z,18.17
2018-04-08T12:13:48.605Z,18.90
2018-04-08T12:14:51.832Z,19.23
2018-04-08T12:15:55.840Z,21.00
2018-04-08T12:17:00.130Z,20.40
2018-04-08T12:18:03.349Z,19.02
2018-04-08T12:19:07.333Z,18.50
2018-04-08T12:20:11.360Z,18.42
2018-04-08T12:21:14.582Z,18.85
2018-04-08T12:22:17.819Z,19.37
2018-04-08T12:23:21.807Z,18.23
2018-04-08T12:24:25.811Z,18.40
2018-04-08T12:25:29.812Z,18.37
2018-04-08T12:26:37.596Z,18.87
2018-04-08T12:27:41.597Z,18.37
2018-04-08T12:28:45.601Z,17.95
2018-04-08T12:29:49.589Z,18.50
2018-04-08T12:30:52.879Z,18.67
2018-04-08T12:31:56.913Z,17.35
2018-04-08T12:33:00.144Z,18.12
2018-04-08T12:34:03.350Z,17.60
2018-04-08T12:35:07.357Z,19.25
2018-04-08T12:36:11.349Z,16.48
2018-04-08T12:37:15.336Z,17.40
2018-04-08T12:38:18.638Z,18.40
2018-04-08T12:39:21.846Z,17.60
2018-04-08T12:40:25.058Z,17.23
2018-04-08T12:41:28.287Z,18.10
2018-04-08T12:42:32.355Z,17.67
2018-04-08T12:43:35.608Z,18.23
2018-04-08T12:44:38.840Z,16.62
2018-04-08T12:45:42.065Z,18.02
2018-04-08T12:46:45.289Z,15.95
2018-04-08T12:47:48.523Z,17.42
2018-04-08T12:48:51.751Z,19.20
2018-04-08T12:49:54.986Z,17.02
2018-04-08T12:50:58.214Z,17.45
2018-04-08T12:52:01.432Z,17.55
2018-04-08T12:53:05.426Z,18.98
2018-04-08T12:54:08.666Z,18.08
2018-04-08T12:55:11.876Z,17.50
2018-04-08T12:56:15.092Z,16.58
2018-04-08T12:57:19.137Z,17.48
2018-04-08T12:58:23.076Z,16.50
2018-04-08T12:59:26.375Z,18.30
2018-04-08T13:00:30.425Z,16.27
2018-04-08T13:01:34.373Z,17.23
2018-04-08T13:02:38.394Z,17.75
2018-04-08T13:03:41.638Z,17.65
2018-04-08T13:04:44.853Z,18.77
2018-04-08T13:05:48.117Z,16.12
2018-04-08T13:06:52.098Z,17.77
2018-04-08T13:07:55.321Z,15.65
2018-04-08T13:08:58.573Z,17.08
2018-04-08T13:10:01.813Z,17.12
2018-04-08T13:11:05.064Z,16.70
2018-04-08T13:12:08.302Z,15.82
2018-04-08T13:13:12.323Z,16.85
2018-04-08T13:14:15.544Z,16.25
2018-04-08T13:15:18.782Z,14.50
2018-04-08T13:16:22.036Z,15.25
2018-04-08T13:17:25.262Z,15.75
2018-04-08T13:18:29.285Z,16.50
2018-04-08T13:19:33.265Z,16.65
2018-04-08T13:20:37.268Z,16.35
2018-04-08T13:21:40.480Z,16.62
2018-04-08T13:22:43.728Z,16.12
2018-04-08T13:23:47.714Z,16.70
2018-04-08T13:24:51.044Z,16.25
2018-04-08T13:25:55.035Z,18.62
2018-04-08T13:26:58.260Z,17.05
2018-04-08T13:28:01.480Z,17.55
2018-04-08T13:29:05.472Z,17.45
2018-04-08T13:30:08.689Z,16.95
2018-04-08T13:31:11.921Z,15.35
2018-04-08T13:32:15.142Z,15.07
2018-04-08T13:33:19.136Z,15.10
2018-04-08T13:34:23.129Z,16.02
2018-04-08T13:35:26.354Z,16.30
2018-04-08T13:36:29.585Z,15.43
2018-04-08T13:37:32.813Z,16.00
2018-04-08T13:38:36.042Z,16.00
2018-04-08T13:39:39.255Z,15.32